Meath Environmental Platform

Observations for Trim Patrick St

Time AQI Temp °C Hum % Pres Pa CO μg/m³ H₂S μg/m³ NO μg/m³ NO₂ μg/m³ O₃ μg/m³ SO₂ μg/m³ PM1 μg/m³ PM2.5 μg/m³ PM10 μg/m³
Saturday 1 August 2026
06:57 2 11.5 82 38,460 0.51 3.4 3.85 25.83 26.48 0 10.57 15.54 17.09
06:56 2 11.4 82 38,460 0.53 3.89 3.9 25.49 28.51 0 10.57 16.92 18.61
06:55 2 11.3 81 38,460 0.52 4.48 3.96 31.01 40.46 0 9.71 16.29 17.92
06:54 2 11.2 82 38,460 0.53 3.42 4.1 26.8 28.9 0 9.71 15.58 17.13
06:53 2 11.2 83 38,460 0.51 2.23 3.97 21.17 23.77 0 9.71 14.07 15.48
06:52 2 11.1 83 38,460 0.52 2.67 3.94 21.83 20.19 0 8 14.08 15.49
06:51 2 11.1 83 38,460 0.51 2.77 3.89 28.74 35.53 0 9.71 15.47 17.02
06:50 2 11.1 83 38,460 0.5 3.26 3.88 20.35 26.76 0 8.86 14.08 15.49
06:49 2 11 82 38,460 0.52 3.77 3.84 27.94 32.58 0 10.57 16.88 18.57
06:48 2 10.9 82 38,460 0.52 3.26 3.91 33.54 25.82 0 12.29 17.63 19.39
06:47 2 10.9 82 38,460 0.51 2.43 3.99 60.29 0 0 9.71 15.55 17.1
06:46 2 10.9 83 38,460 0.52 3.13 4.07 22.29 25.94 0 10.57 15.47 17.02
06:45 2 10.8 82 38,460 0.52 2.07 4.09 24.81 14.59 0 10.57 15.5 15.82
06:44 2 10.8 83 38,460 0.52 1.89 4.07 18.76 14.82 0 11.43 16.86 18.54
06:43 2 10.8 82 38,460 0.52 3.48 4.11 25.95 34.11 0 9.71 16.21 17.84
06:42 2 10.7 83 38,460 0.54 1.83 4.11 23.9 16.75 0 10.57 14.74 16.21
06:41 2 10.7 83 38,460 0.53 1.94 4.07 18.45 22.8 0 10.57 16.12 17.74
06:40 2 10.7 83 38,460 0.53 1.52 4.04 21.54 19.83 0 10.57 18.89 20.78
06:39 2 10.7 83 38,460 0.52 1.47 4.06 18 19.72 0 11.43 15.42 16.96
06:38 2 10.6 83 38,460 0.53 2.71 4.12 21.31 34.03 0 10.57 16.11 17.73